Time;durP1;ratioP1;P1;durP2;ratioP2;P2;SDS_P1;SDS_P2;PMS_P1;PMS_P2;Temp;Humidity;BMP_temperature;BMP_pressure;BME280_temperature;BME280_humidity;BME280_pressure;Samples;Min_cycle;Max_cycle;Signal;HPM_P1;HPM_P2
2022/10/20 00:02:00;;;;;;;12.48;4.80;;;6.60;99.90;;;;;;5137758;27;20054;-74
2022/10/20 00:04:26;;;;;;;11.93;4.35;;;6.60;99.90;;;;;;5156876;27;20043;-74
2022/10/20 00:06:51;;;;;;;14.60;4.72;;;6.60;99.90;;;;;;5156286;27;20050;-76
2022/10/20 00:09:17;;;;;;;14.55;4.68;;;6.60;99.90;;;;;;5138064;27;20053;-74
2022/10/20 00:11:44;;;;;;;13.32;4.57;;;6.60;99.90;;;;;;5155407;27;20518;-74
2022/10/20 00:14:11;;;;;;;12.40;4.47;;;6.50;99.90;;;;;;5137514;27;20050;-73
2022/10/20 00:16:38;;;;;;;11.90;4.65;;;6.50;99.90;;;;;;5138259;27;20082;-73
2022/10/20 00:19:04;;;;;;;13.07;4.15;;;6.50;99.90;;;;;;5137769;27;20462;-74
2022/10/20 00:21:31;;;;;;;11.05;4.03;;;6.50;99.90;;;;;;5155358;27;20479;-75
2022/10/20 00:24:00;;;;;;;14.77;4.40;;;6.40;99.90;;;;;;5156242;27;20047;-74
2022/10/20 00:26:26;;;;;;;10.15;4.22;;;6.40;99.90;;;;;;5137989;27;20046;-74
2022/10/20 00:28:53;;;;;;;11.65;4.45;;;6.50;99.90;;;;;;5137018;27;20047;-73
2022/10/20 00:31:21;;;;;;;13.73;4.30;;;6.60;99.90;;;;;;5137136;27;20245;-75
2022/10/20 00:33:47;;;;;;;11.15;4.22;;;6.40;99.90;;;;;;5155509;27;20498;-73
2022/10/20 00:36:15;;;;;;;13.27;4.23;;;6.50;99.90;;;;;;5155188;27;20505;-73
2022/10/20 00:38:42;;;;;;;9.50;3.75;;;6.40;99.90;;;;;;5155431;27;20503;-74
2022/10/20 00:41:08;;;;;;;11.55;3.92;;;6.40;99.90;;;;;;5136772;27;20046;-74
2022/10/20 00:43:46;;;;;;;11.73;4.45;;;6.40;99.90;;;;;;5155297;27;20466;-73
2022/10/20 00:46:14;;;;;;;8.60;3.88;;;6.40;99.90;;;;;;5119648;27;20057;-74
2022/10/20 00:48:44;;;;;;;11.07;4.40;;;6.40;99.90;;;;;;5138983;27;20371;-74
2022/10/20 00:51:13;;;;;;;13.23;4.10;;;6.40;99.90;;;;;;5156868;27;20042;-75
2022/10/20 00:53:39;;;;;;;12.30;3.92;;;6.40;99.90;;;;;;5157161;27;20050;-75
2022/10/20 00:56:05;;;;;;;12.02;4.70;;;6.30;99.90;;;;;;5157068;27;20043;-74
2022/10/20 00:58:34;;;;;;;12.75;4.05;;;6.40;99.90;;;;;;5155554;27;20043;-76
2022/10/20 01:01:00;;;;;;;10.02;3.85;;;6.30;99.90;;;;;;5154990;27;20046;-76
2022/10/20 01:03:33;;;;;;;13.50;4.40;;;6.60;99.90;;;;;;5119485;27;20062;-74
2022/10/20 01:05:59;;;;;;;16.13;4.20;;;6.50;99.90;;;;;;5136183;27;20142;-74
2022/10/20 01:08:24;;;;;;;10.65;3.80;;;6.50;99.90;;;;;;5154935;27;20077;-74
2022/10/20 01:10:59;;;;;;;11.18;3.85;;;6.30;99.90;;;;;;5136146;27;20069;-73
2022/10/20 01:13:56;;;;;;;17.30;4.57;;;7.00;99.90;;;;;;5136158;27;20082;-73
2022/10/20 01:16:42;;;;;;;13.88;3.97;;;6.30;99.90;;;;;;5144761;27;20051;-77
2022/10/20 01:19:18;;;;;;;11.07;4.40;;;6.40;99.90;;;;;;5155841;27;20110;-74
2022/10/20 01:21:48;;;;;;;10.80;4.00;;;6.50;99.90;;;;;;5138202;27;20054;-74
2022/10/20 01:24:17;;;;;;;17.17;3.90;;;7.00;99.90;;;;;;5138218;27;20090;-73
2022/10/20 01:27:07;;;;;;;10.57;3.80;;;6.50;99.90;;;;;;5120856;27;20058;-74
2022/10/20 01:29:41;;;;;;;10.90;3.97;;;6.60;99.90;;;;;;5158032;27;20046;-73
2022/10/20 01:32:20;;;;;;;14.02;4.45;;;6.70;99.90;;;;;;5166068;27;20078;-73
2022/10/20 01:34:54;;;;;;;11.35;3.90;;;5.80;99.90;;;;;;5145587;27;20053;-73
2022/10/20 01:37:33;;;;;;;11.77;4.07;;;6.60;99.90;;;;;;5137944;27;20361;-74
2022/10/20 01:40:16;;;;;;;18.15;4.93;;;6.50;99.90;;;;;;5136232;27;20117;-72
2022/10/20 01:42:44;;;;;;;12.13;3.92;;;6.30;99.90;;;;;;5154300;27;20051;-73
2022/10/20 01:45:13;;;;;;;14.93;3.88;;;6.50;99.90;;;;;;5135991;27;20047;-75
2022/10/20 01:47:41;;;;;;;9.40;3.38;;;6.50;99.90;;;;;;5135761;27;20046;-73
2022/10/20 01:50:09;;;;;;;17.75;4.60;;;6.50;99.90;;;;;;5154444;27;20085;-74
2022/10/20 01:52:36;;;;;;;11.00;4.28;;;6.50;99.90;;;;;;5135838;27;20053;-73
2022/10/20 01:55:08;;;;;;;11.00;3.50;;;6.70;99.90;;;;;;5154158;27;20045;-73
2022/10/20 01:58:06;;;;;;;9.50;4.00;;;6.50;99.90;;;;;;5136612;27;20059;-73
2022/10/20 02:00:35;;;;;;;13.05;4.43;;;6.50;99.90;;;;;;5096978;27;20046;-74
2022/10/20 02:03:17;;;;;;;13.10;4.22;;;6.50;99.90;;;;;;5154731;27;20053;-73
2022/10/20 02:06:02;;;;;;;9.88;4.40;;;6.50;99.90;;;;;;5135723;27;20089;-73
2022/10/20 02:08:39;;;;;;;10.88;4.10;;;6.90;99.90;;;;;;5154405;27;20144;-76
2022/10/20 02:11:08;;;;;;;14.00;4.38;;;6.50;99.90;;;;;;5154713;27;20151;-73
2022/10/20 02:13:37;;;;;;;12.35;4.35;;;6.40;99.90;;;;;;5135659;27;20043;-75
2022/10/20 02:16:11;;;;;;;14.63;4.22;;;6.40;99.90;;;;;;5135675;27;20047;-73
2022/10/20 02:18:41;;;;;;;12.20;4.35;;;6.60;99.90;;;;;;5156158;27;20569;-74
2022/10/20 02:21:07;;;;;;;11.60;4.20;;;6.40;99.90;;;;;;5139518;27;20045;-73
2022/10/20 02:23:37;;;;;;;11.23;4.57;;;6.60;99.90;;;;;;5135749;27;20055;-73
2022/10/20 02:26:08;;;;;;;13.98;4.50;;;6.30;99.90;;;;;;5136668;27;20281;-75
2022/10/20 02:28:38;;;;;;;12.55;4.97;;;6.40;99.90;;;;;;5136893;27;20075;-73
2022/10/20 02:31:04;;;;;;;9.70;3.75;;;6.90;99.90;;;;;;5135870;27;20051;-72
2022/10/20 02:33:30;;;;;;;12.23;4.10;;;6.30;99.90;;;;;;5102016;27;20099;-77
2022/10/20 02:35:58;;;;;;;17.23;5.03;;;6.30;99.90;;;;;;5119140;27;20110;-73
2022/10/20 02:38:24;;;;;;;14.88;4.40;;;6.30;99.90;;;;;;5119689;27;20482;-72
2022/10/20 02:40:50;;;;;;;13.02;4.53;;;6.30;99.90;;;;;;5137029;27;20485;-72
2022/10/20 02:43:16;;;;;;;13.45;4.15;;;6.60;99.90;;;;;;5137769;27;20046;-73
2022/10/20 02:45:41;;;;;;;14.27;4.60;;;6.40;99.90;;;;;;5136000;27;20134;-74
2022/10/20 02:48:10;;;;;;;10.40;4.90;;;6.40;99.90;;;;;;5118801;27;20502;-74
2022/10/20 02:50:36;;;;;;;12.40;4.82;;;6.80;99.90;;;;;;5136976;27;20054;-74
2022/10/20 02:53:03;;;;;;;13.65;4.63;;;6.50;99.90;;;;;;5102204;27;20475;-74
2022/10/20 02:55:29;;;;;;;12.07;4.53;;;6.30;99.90;;;;;;5136330;27;20054;-73
2022/10/20 02:57:54;;;;;;;12.85;4.68;;;6.70;99.90;;;;;;5118562;27;20047;-73
2022/10/20 03:00:21;;;;;;;14.38;4.75;;;6.30;99.90;;;;;;5135442;27;20050;-75
2022/10/20 03:02:47;;;;;;;11.93;4.90;;;6.90;99.90;;;;;;5136787;27;20094;-74
2022/10/20 03:05:13;;;;;;;12.07;5.00;;;6.50;99.90;;;;;;5135737;27;20058;-72
2022/10/20 03:07:45;;;;;;;10.13;4.47;;;6.20;99.90;;;;;;5142348;27;20045;-75
2022/10/20 03:10:10;;;;;;;11.68;4.70;;;6.20;99.90;;;;;;5123041;27;20043;-73
2022/10/20 03:12:36;;;;;;;14.93;5.65;;;6.40;99.90;;;;;;5136640;27;20042;-73
2022/10/20 03:15:02;;;;;;;12.15;4.72;;;6.40;99.90;;;;;;5120058;27;20043;-72
2022/10/20 03:17:28;;;;;;;13.60;5.15;;;6.20;99.90;;;;;;5136861;27;20039;-73
2022/10/20 03:19:54;;;;;;;12.93;5.32;;;6.30;99.90;;;;;;5136524;27;20050;-72
2022/10/20 03:22:19;;;;;;;14.90;5.20;;;6.30;99.90;;;;;;5117702;28;20138;-73
2022/10/20 03:24:45;;;;;;;10.68;5.05;;;6.20;99.90;;;;;;5135297;28;20059;-73
2022/10/20 03:27:11;;;;;;;16.75;5.10;;;6.50;99.90;;;;;;5133238;28;20103;-73
2022/10/20 03:29:36;;;;;;;16.20;5.53;;;6.30;99.90;;;;;;5134318;27;20035;-73
2022/10/20 03:32:02;;;;;;;13.90;5.22;;;6.20;99.90;;;;;;5133573;28;20054;-74
2022/10/20 03:34:28;;;;;;;16.20;5.57;;;6.10;99.90;;;;;;5135380;28;20094;-74
2022/10/20 03:36:53;;;;;;;13.90;5.70;;;6.10;99.90;;;;;;5133684;28;20031;-74
2022/10/20 03:39:19;;;;;;;17.63;5.70;;;6.00;99.90;;;;;;5134882;27;20062;-74
2022/10/20 03:41:45;;;;;;;14.70;6.40;;;6.10;99.90;;;;;;5133601;28;20134;-74
2022/10/20 03:44:10;;;;;;;14.55;6.00;;;6.00;99.90;;;;;;5133835;28;20420;-74
2022/10/20 03:46:36;;;;;;;13.50;6.00;;;6.10;99.90;;;;;;5133331;28;20129;-76
2022/10/20 03:49:02;;;;;;;12.90;6.40;;;6.10;99.90;;;;;;5116530;28;20091;-74
2022/10/20 03:51:28;;;;;;;13.95;6.20;;;6.10;99.90;;;;;;5133130;28;20066;-76
2022/10/20 03:53:54;;;;;;;12.10;5.75;;;6.00;99.90;;;;;;5135121;27;20043;-75
2022/10/20 03:56:20;;;;;;;17.83;6.68;;;6.00;99.90;;;;;;5133147;28;20047;-74
2022/10/20 03:58:46;;;;;;;14.38;6.40;;;6.20;99.90;;;;;;5116169;28;20061;-74
2022/10/20 04:01:18;;;;;;;15.20;6.78;;;6.80;99.90;;;;;;5133120;28;20039;-73
2022/10/20 04:03:44;;;;;;;15.55;6.70;;;6.10;99.90;;;;;;5134101;27;20497;-74
2022/10/20 04:06:14;;;;;;;13.77;6.68;;;6.10;99.90;;;;;;5116237;28;20150;-74
2022/10/20 04:08:40;;;;;;;18.58;7.25;;;6.20;99.90;;;;;;5133023;28;20129;-73
2022/10/20 04:11:06;;;;;;;17.13;7.28;;;6.20;99.90;;;;;;5134979;27;20123;-73
2022/10/20 04:13:31;;;;;;;16.95;6.57;;;6.30;99.90;;;;;;5133588;28;20125;-74
2022/10/20 04:15:57;;;;;;;16.50;6.93;;;6.40;99.90;;;;;;5117414;28;20416;-74
2022/10/20 04:18:23;;;;;;;15.80;7.30;;;6.30;99.90;;;;;;5116364;28;20451;-74
2022/10/20 04:20:49;;;;;;;16.73;7.10;;;6.20;99.90;;;;;;5134885;28;20084;-75
2022/10/20 04:23:14;;;;;;;16.63;6.93;;;6.60;99.90;;;;;;5121673;27;151877;-73
2022/10/20 04:25:50;;;;;;;14.23;7.25;;;6.20;99.90;;;;;;5138626;27;20059;-74
2022/10/20 04:28:17;;;;;;;18.83;8.18;;;6.50;99.90;;;;;;5149298;27;20105;-73
2022/10/20 04:30:44;;;;;;;17.92;7.47;;;6.30;99.90;;;;;;5142183;27;20043;-74
2022/10/20 04:33:11;;;;;;;17.23;7.20;;;6.70;99.90;;;;;;5136571;27;20138;-74
2022/10/20 04:35:37;;;;;;;15.77;7.85;;;6.40;99.90;;;;;;5136345;27;20047;-77
2022/10/20 04:38:03;;;;;;;17.45;8.00;;;6.30;99.90;;;;;;5134251;27;20149;-73
2022/10/20 04:40:29;;;;;;;18.33;8.57;;;6.30;99.90;;;;;;5134055;27;20039;-74
2022/10/20 04:42:55;;;;;;;16.52;8.23;;;6.30;99.90;;;;;;5145192;27;20070;-74
2022/10/20 04:45:20;;;;;;;19.92;8.85;;;6.20;99.90;;;;;;5151124;27;20054;-74
2022/10/20 04:47:46;;;;;;;17.95;8.27;;;6.20;99.90;;;;;;5148571;27;20130;-74
2022/10/20 04:50:12;;;;;;;18.92;7.80;;;6.30;99.90;;;;;;5150913;27;20071;-74
2022/10/20 04:52:37;;;;;;;18.80;7.95;;;6.30;99.90;;;;;;5150484;27;20051;-72
2022/10/20 04:55:03;;;;;;;17.48;7.68;;;6.30;99.90;;;;;;5154431;27;20089;-72
2022/10/20 04:57:29;;;;;;;15.05;8.10;;;6.20;99.90;;;;;;5156762;27;20070;-77
2022/10/20 04:59:55;;;;;;;22.65;8.63;;;6.10;99.90;;;;;;5154763;27;20051;-79
2022/10/20 05:02:20;;;;;;;22.08;9.00;;;6.20;99.90;;;;;;5149638;27;20409;-75
2022/10/20 05:04:46;;;;;;;19.88;8.98;;;6.20;99.90;;;;;;5143611;27;20039;-75
2022/10/20 05:07:12;;;;;;;25.95;9.32;;;6.20;99.90;;;;;;5125078;27;20103;-73
2022/10/20 05:09:38;;;;;;;18.63;8.02;;;6.20;99.90;;;;;;5142006;27;20344;-74
2022/10/20 05:12:03;;;;;;;19.35;9.27;;;6.10;99.90;;;;;;5139924;27;20042;-72
2022/10/20 05:14:29;;;;;;;18.58;8.63;;;6.20;99.90;;;;;;5133603;27;20086;-73
2022/10/20 05:16:55;;;;;;;19.17;8.60;;;6.20;99.90;;;;;;5135453;27;20130;-73
2022/10/20 05:19:20;;;;;;;19.00;8.45;;;6.20;99.90;;;;;;5134462;27;20066;-73
2022/10/20 05:21:46;;;;;;;21.80;8.88;;;6.10;99.90;;;;;;5135144;27;20049;-74
2022/10/20 05:24:14;;;;;;;20.95;8.30;;;6.10;99.90;;;;;;5137108;27;20050;-74
2022/10/20 05:26:40;;;;;;;19.75;9.02;;;6.10;99.90;;;;;;5136342;27;20121;-73
2022/10/20 05:29:07;;;;;;;19.77;9.60;;;6.30;99.90;;;;;;5155249;27;20479;-72
2022/10/20 05:31:39;;;;;;;18.38;8.88;;;6.10;99.90;;;;;;5136125;27;20038;-73
2022/10/20 05:34:05;;;;;;;20.48;9.98;;;6.00;99.90;;;;;;5119518;27;20043;-73
2022/10/20 05:36:31;;;;;;;21.92;10.13;;;6.10;99.90;;;;;;5154612;27;20125;-73
2022/10/20 05:38:56;;;;;;;20.33;10.38;;;6.10;99.90;;;;;;5136240;27;20410;-73
2022/10/20 05:41:28;;;;;;;20.60;9.70;;;6.00;99.90;;;;;;5118752;27;20043;-73
2022/10/20 05:43:57;;;;;;;21.60;9.68;;;6.00;99.90;;;;;;5136268;27;20069;-74
2022/10/20 05:46:24;;;;;;;20.70;9.85;;;5.90;99.90;;;;;;5154440;27;20107;-73
2022/10/20 05:48:53;;;;;;;21.60;9.38;;;6.20;99.90;;;;;;5154607;27;20038;-73
2022/10/20 05:51:23;;;;;;;22.13;10.00;;;6.00;99.90;;;;;;5154197;27;20035;-74
2022/10/20 05:53:49;;;;;;;20.73;10.98;;;6.50;99.90;;;;;;5135849;27;20171;-73
2022/10/20 05:56:18;;;;;;;20.83;9.68;;;6.00;99.90;;;;;;5135792;27;20073;-74
2022/10/20 05:58:44;;;;;;;23.48;10.27;;;6.00;99.90;;;;;;5154167;27;20497;-72
2022/10/20 06:01:39;;;;;;;20.42;10.00;;;6.30;99.90;;;;;;5153979;27;20034;-74
2022/10/20 06:04:07;;;;;;;21.95;10.02;;;6.00;99.90;;;;;;5154277;27;20042;-72
2022/10/20 06:06:34;;;;;;;22.35;9.50;;;6.00;99.90;;;;;;5154115;27;20043;-72
2022/10/20 06:09:03;;;;;;;26.33;10.38;;;6.20;99.90;;;;;;5154637;27;20053;-73
2022/10/20 06:11:28;;;;;;;22.25;10.20;;;6.00;99.90;;;;;;5135356;27;20046;-76
2022/10/20 06:13:55;;;;;;;20.30;10.40;;;6.00;99.90;;;;;;5153828;27;20503;-73
2022/10/20 06:16:24;;;;;;;26.00;11.30;;;5.90;99.90;;;;;;5136168;27;20350;-72
2022/10/20 06:18:50;;;;;;;24.65;11.45;;;6.00;99.90;;;;;;5135622;27;20382;-74
2022/10/20 06:21:18;;;;;;;20.17;11.35;;;5.90;99.90;;;;;;5135333;27;20042;-74
2022/10/20 06:23:44;;;;;;;23.05;11.00;;;6.00;99.90;;;;;;5117929;27;20051;-74
2022/10/20 06:26:18;;;;;;;21.13;10.75;;;6.00;99.90;;;;;;5135248;27;20055;-74
2022/10/20 06:28:46;;;;;;;20.90;10.77;;;6.10;99.90;;;;;;5153829;27;20501;-74
2022/10/20 06:31:14;;;;;;;23.33;9.95;;;6.10;99.90;;;;;;5135402;27;20454;-73
2022/10/20 06:33:40;;;;;;;25.20;11.68;;;6.20;99.90;;;;;;5154293;27;20042;-73
2022/10/20 06:36:06;;;;;;;25.90;11.38;;;6.20;99.90;;;;;;5153765;27;20039;-73
2022/10/20 06:38:32;;;;;;;24.77;11.85;;;6.20;99.90;;;;;;5135556;27;20047;-73
2022/10/20 06:41:06;;;;;;;23.55;10.60;;;6.30;99.90;;;;;;5134923;27;20057;-74
2022/10/20 06:43:32;;;;;;;24.83;11.07;;;6.30;99.90;;;;;;5135776;27;20549;-73
2022/10/20 06:45:59;;;;;;;25.58;11.95;;;6.30;99.90;;;;;;5154386;27;20099;-72
2022/10/20 06:48:26;;;;;;;23.25;11.45;;;6.20;99.90;;;;;;5135020;27;20486;-73
2022/10/20 06:51:00;;;;;;;24.63;11.02;;;7.30;99.90;;;;;;5135170;27;20039;-74
2022/10/20 06:53:28;;;;;;;27.67;10.68;;;6.50;99.90;;;;;;5135710;27;20143;-74
2022/10/20 06:55:56;;;;;;;;;;;6.50;99.90;;;;;;5153562;27;20107;-73
2022/10/20 06:58:22;;;;;;;19.70;9.65;;;6.50;99.90;;;;;;5135164;27;20005;-75
2022/10/20 07:01:07;;;;;;;22.77;9.77;;;6.60;99.90;;;;;;5153838;27;20118;-75
2022/10/20 07:03:34;;;;;;;18.88;9.65;;;6.60;99.90;;;;;;5135222;27;20054;-76
2022/10/20 07:06:01;;;;;;;22.65;10.02;;;6.60;99.90;;;;;;5104864;27;20043;-74
2022/10/20 07:08:29;;;;;;;22.90;10.70;;;6.70;99.90;;;;;;5157337;27;20054;-74
2022/10/20 07:11:06;;;;;;;20.70;10.25;;;6.70;99.90;;;;;;5156947;27;20525;-75
2022/10/20 07:13:34;;;;;;;21.05;9.90;;;6.80;99.90;;;;;;5138852;27;20432;-75
2022/10/20 07:16:00;;;;;;;;;;;6.90;99.90;;;;;;5139921;27;20070;-75
2022/10/20 07:18:27;;;;;;;22.52;9.77;;;7.00;99.90;;;;;;5142569;27;20243;-74
2022/10/20 07:20:58;;;;;;;21.02;10.68;;;7.00;99.90;;;;;;5145910;27;20412;-75
2022/10/20 07:23:24;;;;;;;29.38;11.48;;;7.10;99.90;;;;;;5133806;27;20046;-74
2022/10/20 07:25:50;;;;;;;22.98;10.02;;;7.10;99.90;;;;;;5142898;27;20054;-75
2022/10/20 07:28:16;;;;;;;23.73;11.43;;;7.20;99.90;;;;;;5157187;27;20046;-74
2022/10/20 07:30:41;;;;;;;22.42;10.57;;;7.00;99.90;;;;;;5157353;27;20092;-75
2022/10/20 07:33:08;;;;;;;21.65;10.75;;;7.10;99.90;;;;;;5138260;27;20370;-73
2022/10/20 07:35:35;;;;;;;20.60;10.02;;;7.10;99.90;;;;;;5156741;27;20054;-77
2022/10/20 07:38:01;;;;;;;21.17;9.68;;;7.50;99.90;;;;;;5156517;27;20145;-75
2022/10/20 07:40:27;;;;;;;22.50;10.05;;;7.40;99.90;;;;;;5156611;27;20039;-73
2022/10/20 07:42:53;;;;;;;21.02;10.23;;;7.80;99.90;;;;;;5156430;27;20070;-74
2022/10/20 07:45:19;;;;;;;22.17;10.18;;;7.50;99.90;;;;;;5121041;27;20046;-72
2022/10/20 07:47:45;;;;;;;22.00;11.05;;;7.50;99.90;;;;;;5121375;27;20047;-74
2022/10/20 07:50:11;;;;;;;20.42;10.40;;;7.50;99.90;;;;;;5156354;27;20431;-74
2022/10/20 07:52:37;;;;;;;23.30;10.25;;;7.60;99.90;;;;;;5137951;27;20062;-72
2022/10/20 07:55:04;;;;;;;24.60;10.30;;;7.70;99.90;;;;;;5156144;27;20490;-73
2022/10/20 07:57:30;;;;;;;19.67;10.50;;;7.50;99.90;;;;;;5156337;27;20050;-73
2022/10/20 07:59:56;;;;;;;26.75;10.00;;;7.60;99.90;;;;;;5156034;27;20094;-75
2022/10/20 08:02:22;;;;;;;22.70;11.00;;;8.70;99.90;;;;;;5121380;27;20046;-75
2022/10/20 08:04:48;;;;;;;19.90;10.73;;;7.90;99.90;;;;;;5121668;27;20053;-74
2022/10/20 08:07:14;;;;;;;24.73;11.40;;;8.10;99.90;;;;;;5156288;27;20054;-74
2022/10/20 08:09:40;;;;;;;22.42;10.65;;;8.00;99.90;;;;;;5156339;27;20046;-75
2022/10/20 08:12:05;;;;;;;23.70;10.70;;;8.00;99.90;;;;;;5158276;27;20039;-75
2022/10/20 08:14:35;;;;;;;20.75;9.82;;;8.70;99.90;;;;;;5159083;27;20039;-74
2022/10/20 08:17:01;;;;;;;18.85;10.20;;;8.60;99.90;;;;;;5159595;27;20049;-75
2022/10/20 08:19:28;;;;;;;22.93;10.03;;;8.30;99.90;;;;;;5140783;27;20133;-74
2022/10/20 08:21:53;;;;;;;21.20;9.80;;;8.40;99.90;;;;;;5139480;27;20300;-74
2022/10/20 08:24:19;;;;;;;18.73;9.65;;;8.50;99.90;;;;;;5158220;27;20292;-74
2022/10/20 08:26:45;;;;;;;20.25;9.43;;;8.60;99.90;;;;;;5139519;27;20427;-73
2022/10/20 08:29:11;;;;;;;21.88;9.60;;;8.60;99.90;;;;;;5157866;27;20054;-74
2022/10/20 08:31:39;;;;;;;20.63;9.25;;;;;;;;;;5141806;27;20043;-74
2022/10/20 08:34:05;;;;;;;19.13;9.60;;;9.40;99.90;;;;;;5138403;27;20043;-75
2022/10/20 08:36:31;;;;;;;19.65;10.15;;;8.90;99.90;;;;;;5157238;27;20136;-74
2022/10/20 08:39:00;;;;;;;21.48;9.27;;;8.90;99.90;;;;;;5137337;27;20530;-74
2022/10/20 08:41:29;;;;;;;19.40;9.27;;;9.00;99.90;;;;;;5157458;27;20046;-76
2022/10/20 08:43:56;;;;;;;16.65;9.13;;;9.10;99.90;;;;;;5160162;27;20078;-75
2022/10/20 08:46:29;;;;;;;16.73;9.38;;;9.20;99.90;;;;;;5143118;27;20074;-76
2022/10/20 08:48:58;;;;;;;17.85;8.85;;;9.30;99.90;;;;;;5142427;27;20043;-75
2022/10/20 08:51:29;;;;;;;16.42;9.20;;;9.30;99.90;;;;;;5140990;27;20050;-74
2022/10/20 08:53:57;;;;;;;17.83;9.50;;;9.40;99.90;;;;;;5121256;27;20050;-75
2022/10/20 08:56:27;;;;;;;16.30;8.55;;;9.50;99.90;;;;;;5137439;27;20058;-74
2022/10/20 08:58:53;;;;;;;19.30;8.57;;;9.50;99.90;;;;;;5155924;27;20081;-76
2022/10/20 09:01:23;;;;;;;16.98;8.48;;;9.60;99.90;;;;;;5155860;27;20082;-75
2022/10/20 09:03:55;;;;;;;15.32;8.18;;;9.60;99.90;;;;;;5138705;27;20039;-73
2022/10/20 09:06:22;;;;;;;17.77;8.38;;;9.70;99.90;;;;;;5138076;27;20067;-73
2022/10/20 09:08:48;;;;;;;18.27;8.80;;;9.80;99.90;;;;;;5155881;27;20038;-75
2022/10/20 09:11:16;;;;;;;18.15;8.20;;;;;;;;;;5124056;27;20049;-76
2022/10/20 09:13:42;;;;;;;16.15;8.27;;;9.90;99.90;;;;;;5157670;27;20082;-77
2022/10/20 09:16:36;;;;;;;16.02;8.02;;;10.00;99.90;;;;;;5143913;27;20099;-76
2022/10/20 09:19:03;;;;;;;14.90;7.35;;;;;;;;;;5126969;27;20043;-75
2022/10/20 09:21:31;;;;;;;14.80;8.30;;;10.20;99.90;;;;;;5139358;27;20042;-73
2022/10/20 09:24:06;;;;;;;17.88;9.45;;;10.30;99.90;;;;;;5164426;27;20288;-73
2022/10/20 09:26:43;;;;;;;15.68;7.80;;;10.40;99.90;;;;;;5142929;27;20122;-76
2022/10/20 09:29:15;;;;;;;32.10;17.55;;;10.60;99.90;;;;;;5138698;27;20043;-78
2022/10/20 09:31:49;;;;;;;23.05;13.55;;;10.70;99.90;;;;;;5137377;27;20039;-74
2022/10/20 09:34:32;;;;;;;20.95;12.60;;;10.90;99.90;;;;;;5137379;27;20046;-74
2022/10/20 09:37:07;;;;;;;15.73;9.43;;;11.00;99.90;;;;;;5138014;27;20077;-76
2022/10/20 09:39:45;;;;;;;18.38;10.35;;;11.00;99.90;;;;;;5156312;27;20382;-77
2022/10/20 09:42:19;;;;;;;14.77;8.77;;;11.20;99.90;;;;;;5136942;27;20141;-74
2022/10/20 09:44:53;;;;;;;19.05;8.95;;;11.20;99.90;;;;;;5137139;27;20046;-75
2022/10/20 09:47:21;;;;;;;16.55;9.63;;;11.30;99.90;;;;;;5136944;27;20465;-74
2022/10/20 09:49:53;;;;;;;16.63;7.82;;;11.40;99.90;;;;;;5156687;27;20035;-74
2022/10/20 09:52:23;;;;;;;14.85;8.15;;;11.50;99.90;;;;;;5138646;27;20110;-74
2022/10/20 09:54:54;;;;;;;14.80;7.55;;;11.50;99.90;;;;;;5138120;27;20115;-75
2022/10/20 09:57:21;;;;;;;12.25;6.88;;;11.60;99.90;;;;;;5156347;27;20382;-77
2022/10/20 09:59:50;;;;;;;18.38;6.90;;;11.70;99.90;;;;;;5155539;27;20102;-75
2022/10/20 10:02:16;;;;;;;12.43;6.70;;;11.70;99.90;;;;;;5137311;27;20039;-75
2022/10/20 10:04:47;;;;;;;16.67;7.07;;;11.60;99.90;;;;;;5156144;27;20233;-74
2022/10/20 10:07:25;;;;;;;13.40;6.78;;;11.70;99.90;;;;;;5137297;27;20043;-77
2022/10/20 10:10:02;;;;;;;15.18;7.20;;;11.70;99.90;;;;;;5154860;27;20047;-74
2022/10/20 10:12:30;;;;;;;16.80;7.70;;;11.70;99.90;;;;;;5136525;27;20054;-74
2022/10/20 10:15:02;;;;;;;12.60;7.28;;;11.80;99.90;;;;;;5139699;27;20202;-74
2022/10/20 10:17:47;;;;;;;16.58;7.18;;;11.90;99.90;;;;;;5161658;27;20079;-74
2022/10/20 10:20:13;;;;;;;15.07;6.07;;;11.90;99.90;;;;;;5115153;27;20370;-75
2022/10/20 10:22:40;;;;;;;12.43;6.40;;;12.00;99.90;;;;;;5123880;27;20047;-76
2022/10/20 10:25:14;;;;;;;17.20;7.15;;;12.10;99.90;;;;;;5139262;27;20111;-77
2022/10/20 10:27:55;;;;;;;11.52;5.18;;;12.10;99.90;;;;;;5156739;27;20082;-74
2022/10/20 10:30:28;;;;;;;13.88;7.32;;;12.20;99.90;;;;;;5138980;27;20042;-74
2022/10/20 10:32:55;;;;;;;13.45;6.53;;;12.10;99.90;;;;;;5138154;27;20051;-75
2022/10/20 10:35:32;;;;;;;17.75;7.15;;;12.30;99.90;;;;;;5137574;27;20095;-76
2022/10/20 10:37:59;;;;;;;14.75;6.20;;;12.30;99.90;;;;;;5157522;27;20047;-77
2022/10/20 10:40:57;;;;;;;12.15;5.95;;;12.40;99.90;;;;;;5140633;27;20046;-73
2022/10/20 10:43:39;;;;;;;14.68;7.45;;;12.50;99.90;;;;;;5082856;27;20046;-77
2022/10/20 10:46:07;;;;;;;13.23;6.57;;;;;;;;;;5140720;27;20542;-76
2022/10/20 10:48:32;;;;;;;11.88;6.60;;;12.70;99.90;;;;;;5159780;27;20129;-76
2022/10/20 10:51:02;;;;;;;11.38;6.53;;;12.70;99.90;;;;;;5123758;27;20073;-76
2022/10/20 10:53:45;;;;;;;13.50;6.40;;;;;;;;;;5159928;27;20186;-77
2022/10/20 10:56:38;;;;;;;14.95;7.43;;;12.90;99.90;;;;;;5158914;27;20078;-74
2022/10/20 10:59:11;;;;;;;11.63;6.55;;;13.00;99.90;;;;;;5159130;27;20130;-75
2022/10/20 11:02:07;;;;;;;11.88;6.22;;;13.00;99.90;;;;;;5141118;27;20058;-75
2022/10/20 11:04:35;;;;;;;13.35;6.97;;;13.00;99.90;;;;;;5158965;27;20039;-76
2022/10/20 11:07:29;;;;;;;12.23;6.45;;;13.00;99.90;;;;;;5141266;27;20362;-76
2022/10/20 11:10:10;;;;;;;15.98;7.13;;;13.00;99.90;;;;;;5158940;27;20046;-76
2022/10/20 11:13:11;;;;;;;13.32;6.80;;;13.00;99.90;;;;;;5158992;27;20151;-77
2022/10/20 11:15:49;;;;;;;14.43;6.63;;;13.10;99.90;;;;;;5157958;27;20059;-77
2022/10/20 11:18:25;;;;;;;14.70;7.10;;;13.10;99.90;;;;;;5123905;27;20042;-76
2022/10/20 11:21:25;;;;;;;18.48;7.90;;;13.10;99.90;;;;;;5158634;27;20066;-77
2022/10/20 11:23:57;;;;;;;24.90;7.85;;;13.20;99.90;;;;;;5122527;27;20531;-76
2022/10/20 11:26:51;;;;;;;12.05;7.10;;;13.20;99.90;;;;;;5158807;27;20043;-75
2022/10/20 11:29:46;;;;;;;11.57;6.72;;;13.20;99.90;;;;;;5157744;27;20485;-76
2022/10/20 11:32:30;;;;;;;13.90;7.03;;;13.10;99.90;;;;;;5159033;27;20516;-75
2022/10/20 11:34:56;;;;;;;11.98;6.85;;;13.00;99.90;;;;;;5157903;27;20076;-76
2022/10/20 11:37:29;;;;;;;16.33;7.22;;;13.20;99.90;;;;;;5139757;27;20043;-77
2022/10/20 11:40:10;;;;;;;14.95;7.13;;;13.20;99.90;;;;;;5141451;27;20102;-77
2022/10/20 11:43:13;;;;;;;17.13;7.30;;;13.20;99.90;;;;;;5159546;27;20129;-75
2022/10/20 11:46:03;;;;;;;12.43;6.60;;;13.40;99.90;;;;;;5141816;27;20046;-77
2022/10/20 11:48:39;;;;;;;14.43;7.38;;;13.20;99.90;;;;;;5139221;27;20075;-75
2022/10/20 11:51:23;;;;;;;13.45;6.95;;;13.10;99.90;;;;;;5157950;27;20382;-76
2022/10/20 11:54:07;;;;;;;15.32;6.78;;;13.10;99.90;;;;;;5157715;27;20177;-76
2022/10/20 11:57:11;;;;;;;11.10;7.03;;;13.00;99.90;;;;;;5158293;27;20065;-77
2022/10/20 11:59:58;;;;;;;19.00;7.60;;;12.90;99.90;;;;;;5158064;27;20050;-75
2022/10/20 12:02:39;;;;;;;17.02;7.05;;;12.90;99.90;;;;;;5139360;27;20041;-75
2022/10/20 12:05:29;;;;;;;13.63;7.28;;;12.90;99.90;;;;;;5139556;27;20476;-74
2022/10/20 12:08:07;;;;;;;17.83;8.07;;;12.80;99.90;;;;;;5157894;27;20078;-75
2022/10/20 12:11:09;;;;;;;13.63;7.60;;;12.80;99.90;;;;;;5157007;27;20089;-75
2022/10/20 12:13:46;;;;;;;18.50;7.90;;;12.90;99.90;;;;;;5138693;27;20383;-77
2022/10/20 12:16:32;;;;;;;15.35;7.72;;;12.70;99.90;;;;;;5157220;27;20439;-74
2022/10/20 12:19:06;;;;;;;15.60;7.50;;;;;;;;;;5139348;27;20038;-74
2022/10/20 12:21:54;;;;;;;13.90;7.35;;;13.50;99.90;;;;;;5122780;27;20095;-77
2022/10/20 12:24:41;;;;;;;14.75;7.90;;;12.80;99.90;;;;;;5160498;27;20063;-75
2022/10/20 12:30:58;;;;;;;14.85;7.70;;;12.80;99.90;;;;;;5170835;27;20041;-73
2022/10/20 12:33:58;;;;;;;20.20;8.80;;;12.80;99.90;;;;;;5144031;27;20051;-76
2022/10/20 12:36:35;;;;;;;14.43;7.03;;;12.90;99.90;;;;;;5141913;27;20043;-78
2022/10/20 12:39:21;;;;;;;;;;;12.90;99.90;;;;;;5159561;27;20054;-75
2022/10/20 12:41:59;;;;;;;15.30;7.88;;;12.80;99.90;;;;;;5158536;27;20009;-73
2022/10/20 12:44:31;;;;;;;23.38;6.13;;;12.80;99.90;;;;;;5124976;27;20047;-73
2022/10/20 12:47:07;;;;;;;17.77;7.68;;;12.80;99.90;;;;;;5141462;27;20218;-73
2022/10/20 12:49:37;;;;;;;15.63;8.65;;;12.80;99.90;;;;;;5160567;27;20046;-72
2022/10/20 12:52:07;;;;;;;16.85;8.02;;;12.70;99.90;;;;;;5140120;27;20241;-74
2022/10/20 12:54:35;;;;;;;13.73;8.13;;;12.70;99.90;;;;;;5140153;27;20054;-76
2022/10/20 12:57:24;;;;;;;16.67;8.77;;;12.60;99.90;;;;;;5157914;27;20038;-74
2022/10/20 12:59:50;;;;;;;17.92;8.75;;;12.60;99.90;;;;;;5123265;27;20039;-77
2022/10/20 13:02:32;;;;;;;16.73;8.57;;;12.60;99.90;;;;;;5139221;27;20046;-73
2022/10/20 13:05:06;;;;;;;15.90;8.70;;;12.60;99.90;;;;;;5138660;27;20046;-74
2022/10/20 13:07:47;;;;;;;16.55;8.18;;;12.50;99.90;;;;;;5161744;27;20481;-73
2022/10/20 13:10:41;;;;;;;16.80;8.93;;;12.50;99.90;;;;;;5161968;27;20046;-74